Time;durP1;ratioP1;P1;durP2;ratioP2;P2;SDS_P1;SDS_P2;PMS_P1;PMS_P2;Temp;Humidity;BMP_temperature;BMP_pressure;BME280_temperature;BME280_humidity;BME280_pressure;Samples;Min_cycle;Max_cycle;Signal;HPM_P1;HPM_P2
2023/02/07 00:00:31;;;;;;;61.42;36.25;;;2.20;99.90;;;;;;2092171;28;20488;-72
2023/02/07 00:01:32;;;;;;;61.13;36.78;;;2.20;99.90;;;;;;2092555;28;20025;-72
2023/02/07 00:02:32;;;;;;;56.55;37.72;;;2.20;99.90;;;;;;2093180;28;20055;-72
2023/02/07 00:03:33;;;;;;;62.97;38.72;;;2.20;99.90;;;;;;2090334;28;20021;-72
2023/02/07 00:04:33;;;;;;;61.00;39.35;;;2.20;99.90;;;;;;2092309;28;20013;-72
2023/02/07 00:05:35;;;;;;;62.03;40.00;;;2.20;99.90;;;;;;2091133;28;20020;-72
2023/02/07 00:06:36;;;;;;;65.43;40.00;;;2.20;99.90;;;;;;2089909;28;20028;-72
2023/02/07 00:07:37;;;;;;;61.10;39.30;;;2.20;99.90;;;;;;2092775;28;20104;-72
2023/02/07 00:08:39;;;;;;;62.15;39.95;;;2.20;99.90;;;;;;2090171;28;20069;-72
2023/02/07 00:09:39;;;;;;;66.22;40.33;;;2.20;99.90;;;;;;2089053;28;20028;-72
2023/02/07 00:10:40;;;;;;;71.00;39.80;;;2.20;99.90;;;;;;2091663;28;20479;-72
2023/02/07 00:11:41;;;;;;;61.85;39.65;;;2.20;99.90;;;;;;2091581;28;20039;-72
2023/02/07 00:12:41;;;;;;;67.32;40.47;;;2.20;99.90;;;;;;2090367;28;20055;-72
2023/02/07 00:13:47;;;;;;;61.28;38.75;;;2.20;99.90;;;;;;2088624;28;20028;-72
2023/02/07 00:14:48;;;;;;;59.85;37.15;;;2.20;99.90;;;;;;2093055;28;20123;-72
2023/02/07 00:15:50;;;;;;;60.50;38.83;;;2.20;99.90;;;;;;2093692;28;20029;-72
2023/02/07 00:16:50;;;;;;;62.95;39.55;;;2.20;99.90;;;;;;2093314;28;20024;-72
2023/02/07 00:17:51;;;;;;;58.55;38.65;;;2.20;99.90;;;;;;2092652;28;20072;-72
2023/02/07 00:18:52;;;;;;;62.42;38.65;;;2.20;99.90;;;;;;2094004;28;20428;-72
2023/02/07 00:19:52;;;;;;;55.83;37.17;;;2.20;99.90;;;;;;2092790;28;20409;-72
2023/02/07 00:21:01;;;;;;;64.18;38.35;;;2.20;99.90;;;;;;2091989;28;20106;-72
2023/02/07 00:22:02;;;;;;;60.25;37.50;;;2.20;99.90;;;;;;2093067;28;20357;-72
2023/02/07 00:23:03;;;;;;;69.32;38.47;;;2.20;99.90;;;;;;2094092;28;20671;-72
2023/02/07 00:24:03;;;;;;;57.72;36.88;;;2.20;99.90;;;;;;2093606;28;20028;-72
2023/02/07 00:25:05;;;;;;;60.97;37.35;;;2.20;99.90;;;;;;2091822;28;20107;-72
2023/02/07 00:26:06;;;;;;;53.13;36.60;;;2.20;99.90;;;;;;2092929;28;20027;-72
2023/02/07 00:27:07;;;;;;;52.88;35.35;;;2.20;99.90;;;;;;2094261;28;20028;-72
2023/02/07 00:28:07;;;;;;;54.72;36.47;;;2.20;99.90;;;;;;2091809;28;20103;-72
2023/02/07 00:29:12;;;;;;;51.15;35.08;;;2.30;99.90;;;;;;2093348;28;20056;-72
2023/02/07 00:30:13;;;;;;;51.67;34.03;;;2.30;99.90;;;;;;2092054;28;20422;-72
2023/02/07 00:31:17;;;;;;;52.10;35.30;;;2.30;99.90;;;;;;2091347;28;20033;-72
2023/02/07 00:32:17;;;;;;;55.17;34.65;;;2.30;99.90;;;;;;2092483;28;20029;-72
2023/02/07 00:33:18;;;;;;;49.88;34.60;;;2.30;99.90;;;;;;2093017;28;20454;-72
2023/02/07 00:34:19;;;;;;;53.22;35.78;;;2.30;99.90;;;;;;2091852;28;20105;-72
2023/02/07 00:35:19;;;;;;;49.83;33.95;;;2.30;99.90;;;;;;2092546;28;20492;-72
2023/02/07 00:36:22;;;;;;;53.40;35.40;;;2.30;99.90;;;;;;2091260;28;20069;-72
2023/02/07 00:37:22;;;;;;;55.22;35.83;;;2.30;99.90;;;;;;2091938;28;20122;-72
2023/02/07 00:38:23;;;;;;;51.08;34.10;;;2.30;99.90;;;;;;2091911;28;20018;-72
2023/02/07 00:39:23;;;;;;;55.88;35.03;;;2.30;99.90;;;;;;2093166;28;20044;-72
2023/02/07 00:40:24;;;;;;;50.45;33.65;;;2.30;99.90;;;;;;2092617;28;20491;-72
2023/02/07 00:41:26;;;;;;;51.00;32.67;;;2.30;99.90;;;;;;2092710;28;20034;-72
2023/02/07 00:42:26;;;;;;;57.35;34.42;;;2.40;99.90;;;;;;2092600;28;20037;-72
2023/02/07 00:43:29;;;;;;;52.53;34.15;;;2.40;99.90;;;;;;2093238;28;20111;-72
2023/02/07 00:44:30;;;;;;;48.58;32.35;;;2.40;99.90;;;;;;2093892;28;20092;-72
2023/02/07 00:45:31;;;;;;;50.63;33.20;;;2.40;99.90;;;;;;2091618;28;20027;-72
2023/02/07 00:46:33;;;;;;;53.38;34.90;;;2.40;99.90;;;;;;2090605;28;20495;-72
2023/02/07 00:47:33;;;;;;;58.97;35.97;;;2.50;99.90;;;;;;2092063;28;20158;-72
2023/02/07 00:48:34;;;;;;;53.85;33.35;;;2.50;99.90;;;;;;2093068;28;20029;-72
2023/02/07 00:49:34;;;;;;;52.13;33.42;;;2.40;99.90;;;;;;2090985;28;20058;-72
2023/02/07 00:50:35;;;;;;;52.30;33.80;;;2.40;99.90;;;;;;2093148;28;20035;-72
2023/02/07 00:51:36;;;;;;;50.22;33.50;;;2.50;99.90;;;;;;2093020;28;20070;-72
2023/02/07 00:52:36;;;;;;;51.40;33.55;;;2.40;99.90;;;;;;2092980;28;20615;-72
2023/02/07 00:53:38;;;;;;;53.90;34.42;;;2.40;99.90;;;;;;2092123;28;20438;-72
2023/02/07 00:54:38;;;;;;;51.70;34.10;;;2.40;99.90;;;;;;2089191;28;20132;-72
2023/02/07 00:55:39;;;;;;;50.75;33.30;;;2.40;99.90;;;;;;2091813;28;20040;-72
2023/02/07 00:56:40;;;;;;;52.17;33.22;;;2.40;99.90;;;;;;2094493;28;20370;-72
2023/02/07 00:57:40;;;;;;;51.83;33.47;;;2.40;99.90;;;;;;2092788;28;20021;-72
2023/02/07 00:58:41;;;;;;;50.00;32.10;;;2.50;99.90;;;;;;2092816;28;20021;-72
2023/02/07 00:59:41;;;;;;;46.63;32.30;;;2.40;99.90;;;;;;2090552;28;20055;-72
2023/02/07 01:00:42;;;;;;;51.47;34.53;;;2.50;99.90;;;;;;2093707;28;20032;-72
2023/02/07 01:01:42;;;;;;;48.90;34.13;;;2.40;99.90;;;;;;2090813;28;20029;-72
2023/02/07 01:02:43;;;;;;;50.08;33.13;;;2.50;99.90;;;;;;2091560;28;20031;-72
2023/02/07 01:03:43;;;;;;;53.45;34.72;;;2.50;99.90;;;;;;2093229;28;20123;-72
2023/02/07 01:04:44;;;;;;;52.45;33.10;;;2.50;99.90;;;;;;2086654;28;20029;-72
2023/02/07 01:05:45;;;;;;;46.92;32.83;;;2.50;99.90;;;;;;2095305;28;20074;-72
2023/02/07 01:06:45;;;;;;;49.47;32.63;;;2.50;99.90;;;;;;2091740;28;20074;-72
2023/02/07 01:07:46;;;;;;;46.63;33.60;;;2.50;99.90;;;;;;2092458;28;20035;-72
2023/02/07 01:08:46;;;;;;;52.13;33.38;;;2.50;99.90;;;;;;2094197;28;20033;-72
2023/02/07 01:09:47;;;;;;;51.67;33.03;;;2.50;99.90;;;;;;2091304;28;20113;-72
2023/02/07 01:10:48;;;;;;;55.40;33.38;;;2.50;99.90;;;;;;2091621;28;20543;-72
2023/02/07 01:11:49;;;;;;;51.03;32.58;;;2.50;99.90;;;;;;2095115;28;20035;-73
2023/02/07 01:12:50;;;;;;;53.95;33.95;;;2.50;99.90;;;;;;2093305;28;20021;-72
2023/02/07 01:13:51;;;;;;;47.50;31.30;;;2.40;99.90;;;;;;2095107;28;20115;-72
2023/02/07 01:14:52;;;;;;;51.75;33.22;;;2.40;99.90;;;;;;2091910;28;20033;-72
2023/02/07 01:15:52;;;;;;;50.25;33.08;;;2.40;99.90;;;;;;2089852;28;20031;-72
2023/02/07 01:16:53;;;;;;;49.60;32.55;;;2.40;99.90;;;;;;2091467;28;20025;-72
2023/02/07 01:17:53;;;;;;;50.40;33.90;;;2.40;99.90;;;;;;2091581;28;20017;-72
2023/02/07 01:18:54;;;;;;;47.45;32.08;;;2.40;99.90;;;;;;2090757;28;20497;-72
2023/02/07 01:19:58;;;;;;;47.70;30.60;;;2.40;99.90;;;;;;2091596;28;20031;-72
2023/02/07 01:20:59;;;;;;;46.53;31.23;;;2.40;99.90;;;;;;2094987;28;20554;-72
2023/02/07 01:21:59;;;;;;;48.25;31.83;;;2.40;99.90;;;;;;2095245;28;20439;-72
2023/02/07 01:23:00;;;;;;;45.05;31.15;;;2.40;99.90;;;;;;2091418;28;20024;-72
2023/02/07 01:24:00;;;;;;;41.15;28.88;;;2.40;99.90;;;;;;2090492;28;20074;-72
2023/02/07 01:25:01;;;;;;;42.40;28.45;;;2.40;99.90;;;;;;2093145;28;20028;-72
2023/02/07 01:26:04;;;;;;;41.30;30.23;;;2.40;99.90;;;;;;2092945;28;20058;-72
2023/02/07 01:27:05;;;;;;;48.17;30.23;;;2.40;99.90;;;;;;2091276;28;20037;-72
2023/02/07 01:28:06;;;;;;;46.35;31.05;;;2.40;99.90;;;;;;2091320;28;20028;-72
2023/02/07 01:29:08;;;;;;;43.35;30.17;;;2.40;99.90;;;;;;2090454;28;20103;-72
2023/02/07 01:30:10;;;;;;;41.10;29.33;;;2.40;99.90;;;;;;2091554;28;20025;-71
2023/02/07 01:31:12;;;;;;;43.00;28.40;;;2.40;99.90;;;;;;2092884;28;20463;-71
2023/02/07 01:32:12;;;;;;;42.20;28.42;;;2.40;99.90;;;;;;2091023;28;20384;-72
2023/02/07 01:33:13;;;;;;;42.80;30.55;;;2.40;99.90;;;;;;2092215;28;20771;-71
2023/02/07 01:34:14;;;;;;;41.08;27.20;;;2.40;99.90;;;;;;2092769;28;20025;-71
2023/02/07 01:35:14;;;;;;;41.33;29.23;;;2.40;99.90;;;;;;2090297;28;20025;-71
2023/02/07 01:36:15;;;;;;;39.60;27.02;;;2.40;99.90;;;;;;2092622;28;20775;-71
2023/02/07 01:37:16;;;;;;;42.80;30.35;;;2.40;99.90;;;;;;2092019;28;20103;-72
2023/02/07 01:38:16;;;;;;;41.78;27.23;;;2.40;99.90;;;;;;2090846;28;20476;-72
2023/02/07 01:39:17;;;;;;;36.47;26.92;;;2.40;99.90;;;;;;2093105;28;20774;-72
2023/02/07 01:40:18;;;;;;;39.25;28.42;;;2.40;99.90;;;;;;2090330;28;20067;-72
2023/02/07 01:41:20;;;;;;;38.05;26.73;;;2.40;99.90;;;;;;2092894;28;20539;-72
2023/02/07 01:42:23;;;;;;;40.40;28.00;;;2.40;99.90;;;;;;2091699;28;20051;-72
2023/02/07 01:43:24;;;;;;;41.90;27.67;;;2.30;99.90;;;;;;2092261;28;20396;-71
2023/02/07 01:44:25;;;;;;;39.28;27.70;;;2.30;99.90;;;;;;2092988;28;20021;-71
2023/02/07 01:45:28;;;;;;;42.95;28.88;;;2.30;99.90;;;;;;2092235;28;20037;-71
2023/02/07 01:46:31;;;;;;;40.28;28.15;;;2.30;99.90;;;;;;2090808;28;20041;-71
2023/02/07 01:47:33;;;;;;;39.55;28.50;;;2.30;99.90;;;;;;2092243;28;20033;-71
2023/02/07 01:48:35;;;;;;;40.60;27.50;;;2.30;99.90;;;;;;2092976;28;20025;-71
2023/02/07 01:49:36;;;;;;;38.95;26.92;;;2.20;99.90;;;;;;2090003;28;20111;-71
2023/02/07 01:50:37;;;;;;;36.75;26.48;;;2.20;99.90;;;;;;2091249;28;20512;-71
2023/02/07 01:51:41;;;;;;;39.47;25.63;;;2.20;99.90;;;;;;2092813;28;20512;-71
2023/02/07 01:52:42;;;;;;;40.67;27.23;;;2.20;99.90;;;;;;2088847;28;21950;-71
2023/02/07 01:53:43;;;;;;;42.83;28.35;;;2.20;99.90;;;;;;2091419;28;20055;-71
2023/02/07 01:54:46;;;;;;;38.88;27.70;;;2.20;99.90;;;;;;2091487;28;20031;-71
2023/02/07 01:55:49;;;;;;;37.97;25.98;;;2.20;99.90;;;;;;2092745;28;20033;-71
2023/02/07 01:56:53;;;;;;;39.40;27.13;;;2.20;99.90;;;;;;2093535;28;20021;-71
2023/02/07 01:57:54;;;;;;;33.78;24.85;;;2.10;99.90;;;;;;2090898;28;20033;-71
2023/02/07 01:58:55;;;;;;;40.38;26.45;;;2.10;99.90;;;;;;2094301;28;20020;-71
2023/02/07 01:59:57;;;;;;;36.90;26.20;;;2.10;99.90;;;;;;2090317;28;20474;-71
2023/02/07 02:00:59;;;;;;;37.28;25.65;;;2.10;99.90;;;;;;2092469;28;20029;-72
2023/02/07 02:02:03;;;;;;;37.30;26.85;;;2.10;99.90;;;;;;2092416;28;20024;-72
2023/02/07 02:03:04;;;;;;;38.70;27.95;;;2.10;99.90;;;;;;2090008;28;20020;-72
2023/02/07 02:04:05;;;;;;;40.47;27.02;;;2.00;99.90;;;;;;2091718;28;20029;-72
2023/02/07 02:05:07;;;;;;;31.42;23.70;;;2.00;99.90;;;;;;2093583;28;20044;-72
2023/02/07 02:06:10;;;;;;;35.72;26.55;;;2.00;99.90;;;;;;2091151;28;20027;-72
2023/02/07 02:07:12;;;;;;;40.45;28.52;;;2.00;99.90;;;;;;2091401;28;20027;-72
2023/02/07 02:08:13;;;;;;;38.55;27.52;;;2.00;99.90;;;;;;2091883;28;20481;-72
2023/02/07 02:09:15;;;;;;;36.97;27.15;;;1.90;99.90;;;;;;2093628;28;20026;-72
2023/02/07 02:10:19;;;;;;;39.33;27.52;;;1.90;99.90;;;;;;2088790;28;20032;-72
2023/02/07 02:11:46;;;;;;;38.42;26.33;;;1.90;99.90;;;;;;2091785;28;20056;-72
2023/02/07 02:13:02;;;;;;;38.53;25.98;;;1.90;99.90;;;;;;2091948;28;20020;-72
2023/02/07 02:14:23;;;;;;;36.00;26.75;;;1.80;99.90;;;;;;2093108;28;20032;-72
2023/02/07 02:15:33;;;;;;;32.58;24.92;;;1.80;99.90;;;;;;2093687;28;20021;-71
2023/02/07 02:16:36;;;;;;;37.08;27.35;;;1.80;99.90;;;;;;2092192;28;20035;-71
2023/02/07 02:18:04;;;;;;;36.55;25.85;;;1.70;99.90;;;;;;2091672;28;20020;-71
2023/02/07 02:19:50;;;;;;;34.80;24.77;;;1.70;99.90;;;;;;2091876;28;20025;-71
2023/02/07 02:21:21;;;;;;;36.15;26.10;;;1.70;99.90;;;;;;2093199;28;20111;-71
2023/02/07 02:22:51;;;;;;;37.00;27.45;;;1.60;99.90;;;;;;2092255;28;20073;-72
2023/02/07 02:24:03;;;;;;;;;;;1.60;99.90;;;;;;2090024;28;20427;-72
2023/02/07 02:25:16;;;;;;;34.25;24.38;;;1.50;99.90;;;;;;2091777;28;19916;-72
2023/02/07 02:26:32;;;;;;;36.95;25.23;;;1.50;99.90;;;;;;2093031;28;20418;-72
2023/02/07 02:28:00;;;;;;;35.10;25.77;;;1.50;99.90;;;;;;2093726;28;20029;-71
2023/02/07 02:29:19;;;;;;;39.03;26.30;;;1.40;99.90;;;;;;2093284;28;20509;-71
2023/02/07 02:30:47;;;;;;;35.97;26.33;;;1.40;99.90;;;;;;2088810;28;20412;-71
2023/02/07 02:32:17;;;;;;;35.22;24.25;;;1.40;99.90;;;;;;2090781;28;20033;-71
2023/02/07 02:33:42;;;;;;;31.92;23.27;;;1.40;99.90;;;;;;2092907;28;20020;-71
2023/02/07 02:34:52;;;;;;;33.90;25.17;;;1.40;99.90;;;;;;2092396;28;20069;-71
2023/02/07 02:36:12;;;;;;;;;;;1.30;99.90;;;;;;2093828;28;20079;-71
2023/02/07 02:37:29;;;;;;;32.33;23.45;;;1.20;99.90;;;;;;2091810;28;19919;-71
2023/02/07 02:38:42;;;;;;;37.85;25.77;;;1.20;99.90;;;;;;2091549;28;20029;-71
2023/02/07 02:40:03;;;;;;;32.63;24.50;;;1.20;99.90;;;;;;2091133;28;20112;-71
2023/02/07 02:41:03;;;;;;;33.08;23.95;;;1.20;99.90;;;;;;2091060;28;20032;-71
2023/02/07 02:42:15;;;;;;;36.08;25.88;;;1.20;99.90;;;;;;2090453;28;20025;-71
2023/02/07 02:43:43;;;;;;;41.65;27.33;;;1.20;99.90;;;;;;2091213;28;20074;-71
2023/02/07 02:44:53;;;;;;;38.05;26.35;;;1.20;99.90;;;;;;2091050;28;20028;-71
2023/02/07 02:46:02;;;;;;;35.13;24.00;;;1.20;99.90;;;;;;2088747;28;20016;-71
2023/02/07 02:47:03;;;;;;;34.75;25.55;;;1.20;99.90;;;;;;2090762;28;20061;-71
2023/02/07 02:48:06;;;;;;;35.45;26.38;;;1.20;99.90;;;;;;2092421;28;20108;-71
2023/02/07 02:49:10;;;;;;;40.92;26.65;;;1.20;99.90;;;;;;2089961;28;20380;-71
2023/02/07 02:50:14;;;;;;;38.15;25.13;;;1.20;99.90;;;;;;2091700;28;20111;-71
2023/02/07 02:51:15;;;;;;;32.78;24.52;;;1.10;99.90;;;;;;2091303;28;20032;-71
2023/02/07 02:52:15;;;;;;;38.08;26.10;;;1.10;99.90;;;;;;2092854;28;20610;-71
2023/02/07 02:53:16;;;;;;;39.90;27.48;;;1.10;99.90;;;;;;2089517;28;20048;-71
2023/02/07 02:54:37;;;;;;;34.97;24.38;;;1.10;99.90;;;;;;2089657;28;20021;-71
2023/02/07 02:55:48;;;;;;;29.52;22.20;;;1.10;99.90;;;;;;2099431;28;20028;-71
2023/02/07 02:56:56;;;;;;;30.33;22.40;;;1.10;99.90;;;;;;2098538;28;20052;-71
2023/02/07 02:58:33;;;;;;;37.33;24.13;;;1.10;99.90;;;;;;2092605;28;20428;-71
2023/02/07 03:00:05;;;;;;;32.38;24.10;;;1.10;99.90;;;;;;2091706;28;20032;-71
2023/02/07 03:01:21;;;;;;;35.55;25.35;;;1.10;99.90;;;;;;2090259;28;20079;-71
2023/02/07 03:02:32;;;;;;;32.15;25.33;;;1.00;99.90;;;;;;2092366;28;20029;-71
2023/02/07 03:03:45;;;;;;;33.28;23.40;;;1.00;99.90;;;;;;2093357;28;20074;-71
2023/02/07 03:05:16;;;;;;;34.40;24.45;;;1.00;99.90;;;;;;2092493;28;20012;-71
2023/02/07 03:06:40;;;;;;;31.23;23.23;;;1.00;99.90;;;;;;2091985;28;20499;-71
2023/02/07 03:07:58;;;;;;;33.25;25.50;;;1.00;99.90;;;;;;2088970;28;20028;-71
2023/02/07 03:09:36;;;;;;;32.45;24.25;;;0.90;99.90;;;;;;2091395;28;20032;-71
2023/02/07 03:10:54;;;;;;;30.77;22.92;;;0.90;99.90;;;;;;2089510;28;20017;-71
2023/02/07 03:12:10;;;;;;;31.10;23.45;;;0.90;99.90;;;;;;2090648;28;20038;-71
2023/02/07 03:13:17;;;;;;;30.20;22.67;;;0.90;99.90;;;;;;2091820;28;20029;-71
2023/02/07 03:14:44;;;;;;;33.17;24.15;;;0.90;99.90;;;;;;2089735;28;20615;-71
2023/02/07 03:16:12;;;;;;;32.75;23.77;;;0.90;99.90;;;;;;2089934;28;20070;-71
2023/02/07 03:17:21;;;;;;;32.95;24.23;;;0.80;99.90;;;;;;2087045;28;20035;-71
2023/02/07 03:18:47;;;;;;;33.30;24.80;;;0.80;99.90;;;;;;2092474;28;20043;-71
2023/02/07 03:19:54;;;;;;;32.47;23.48;;;0.80;99.90;;;;;;2083213;28;20645;-71
2023/02/07 03:21:26;;;;;;;34.28;23.50;;;0.80;99.90;;;;;;2092225;28;20081;-71
2023/02/07 03:22:28;;;;;;;32.60;23.13;;;0.80;99.90;;;;;;2091826;28;20070;-71
2023/02/07 03:23:31;;;;;;;35.83;24.92;;;0.80;99.90;;;;;;2090339;28;20029;-71
2023/02/07 03:24:33;;;;;;;33.20;25.58;;;0.80;99.90;;;;;;2097375;28;20672;-71
2023/02/07 03:25:36;;;;;;;34.63;24.67;;;0.80;99.90;;;;;;2098508;28;20039;-71
2023/02/07 03:26:38;;;;;;;35.88;25.48;;;0.80;99.90;;;;;;2090481;28;20017;-71
2023/02/07 03:27:39;;;;;;;36.83;24.85;;;0.80;99.90;;;;;;2092164;28;20048;-71
2023/02/07 03:28:41;;;;;;;36.50;24.75;;;0.80;99.90;;;;;;2093490;28;20027;-71
2023/02/07 03:29:45;;;;;;;32.03;23.98;;;0.80;99.90;;;;;;2091641;28;20029;-71
2023/02/07 03:30:50;;;;;;;32.92;24.55;;;0.70;99.90;;;;;;2091547;28;20052;-71
2023/02/07 03:31:56;;;;;;;33.42;22.95;;;0.70;99.90;;;;;;2092764;28;20039;-71
2023/02/07 03:33:00;;;;;;;29.33;21.90;;;0.70;99.90;;;;;;2090452;28;20901;-71
2023/02/07 03:34:06;;;;;;;31.38;22.83;;;0.70;99.90;;;;;;2093759;28;20017;-71
2023/02/07 03:35:16;;;;;;;31.38;22.08;;;0.70;99.90;;;;;;2092173;28;20115;-71
2023/02/07 03:36:23;;;;;;;33.08;22.90;;;0.70;99.90;;;;;;2091154;28;20460;-71
2023/02/07 03:37:34;;;;;;;30.58;22.48;;;0.70;99.90;;;;;;2092248;28;20460;-71
2023/02/07 03:38:36;;;;;;;34.45;23.65;;;0.70;99.90;;;;;;2088539;28;20025;-71
2023/02/07 03:39:36;;;;;;;32.47;23.58;;;0.60;99.90;;;;;;2090009;28;20020;-71
2023/02/07 03:40:44;;;;;;;29.80;23.20;;;0.70;99.90;;;;;;2091697;28;20024;-71
2023/02/07 03:41:54;;;;;;;29.60;23.13;;;0.70;99.90;;;;;;2091364;28;20028;-71
2023/02/07 03:43:22;;;;;;;28.33;22.30;;;0.60;99.90;;;;;;2092221;28;20052;-71
2023/02/07 03:44:24;;;;;;;29.52;21.65;;;0.60;99.90;;;;;;2091101;28;20048;-71
2023/02/07 03:45:25;;;;;;;30.73;21.25;;;0.60;99.90;;;;;;2091287;28;20033;-71
2023/02/07 03:46:31;;;;;;;30.05;22.02;;;0.60;99.90;;;;;;2090351;28;20033;-71
2023/02/07 03:47:31;;;;;;;38.83;23.35;;;0.60;99.90;;;;;;2090145;28;20119;-71
2023/02/07 03:48:32;;;;;;;27.58;21.50;;;0.60;99.90;;;;;;2090173;28;20036;-71
2023/02/07 03:49:32;;;;;;;31.00;23.85;;;0.50;99.90;;;;;;2092008;28;20052;-71
2023/02/07 03:50:33;;;;;;;35.33;24.13;;;0.60;99.90;;;;;;2092792;28;20025;-71
2023/02/07 03:51:35;;;;;;;34.72;22.60;;;0.60;99.90;;;;;;2092733;28;20497;-71
2023/02/07 03:52:35;;;;;;;29.88;22.73;;;0.50;99.90;;;;;;2092880;28;20111;-71
2023/02/07 03:53:35;;;;;;;34.30;24.48;;;0.60;99.90;;;;;;2091187;28;20088;-71
2023/02/07 03:54:36;;;;;;;29.25;21.25;;;0.50;99.90;;;;;;2092244;28;20025;-71
2023/02/07 03:55:37;;;;;;;33.58;23.27;;;0.60;99.90;;;;;;2094044;28;20122;-71
2023/02/07 03:56:37;;;;;;;28.52;21.88;;;0.50;99.90;;;;;;2092499;28;20025;-72
2023/02/07 03:57:38;;;;;;;31.08;22.35;;;0.50;99.90;;;;;;2093389;28;20460;-71
2023/02/07 03:58:39;;;;;;;31.13;22.42;;;0.50;99.90;;;;;;2091983;28;20035;-71
2023/02/07 03:59:39;;;;;;;29.58;22.23;;;0.50;99.90;;;;;;2092315;28;20075;-71
2023/02/07 04:00:40;;;;;;;35.67;25.17;;;0.50;99.90;;;;;;2095109;28;20020;-71
2023/02/07 04:01:41;;;;;;;28.85;21.80;;;0.50;99.90;;;;;;2093022;28;20045;-71
2023/02/07 04:02:42;;;;;;;32.50;23.40;;;0.50;99.90;;;;;;2093368;28;20033;-71
2023/02/07 04:03:42;;;;;;;30.15;21.35;;;0.40;99.90;;;;;;2091776;28;20017;-71
2023/02/07 04:04:43;;;;;;;31.90;22.98;;;0.50;99.90;;;;;;2090095;28;20028;-71
2023/02/07 04:05:45;;;;;;;28.73;22.05;;;0.40;99.90;;;;;;2093707;28;20067;-71
2023/02/07 04:06:45;;;;;;;29.95;22.85;;;0.40;99.90;;;;;;2091787;28;20111;-71
2023/02/07 04:07:46;;;;;;;30.75;22.48;;;0.40;99.90;;;;;;2093515;28;20031;-71
2023/02/07 04:08:47;;;;;;;33.78;22.10;;;0.40;99.90;;;;;;2093493;28;20033;-71
2023/02/07 04:09:47;;;;;;;34.35;24.77;;;0.40;99.90;;;;;;2092957;28;20572;-71
2023/02/07 04:11:02;;;;;;;34.22;23.63;;;0.40;99.90;;;;;;2094519;28;20638;-71
2023/02/07 04:12:03;;;;;;;30.30;22.75;;;0.40;99.90;;;;;;2092946;28;20201;-71
2023/02/07 04:13:04;;;;;;;31.33;22.48;;;0.40;99.90;;;;;;2094939;28;20025;-71
2023/02/07 04:14:05;;;;;;;33.00;24.08;;;0.40;99.90;;;;;;2094612;28;20032;-71
2023/02/07 04:15:06;;;;;;;32.63;24.42;;;0.40;99.90;;;;;;2093970;28;20013;-71
2023/02/07 04:16:07;;;;;;;33.22;23.08;;;0.30;99.90;;;;;;2091560;28;20334;-71
2023/02/07 04:17:08;;;;;;;31.92;22.83;;;0.30;99.90;;;;;;2093928;28;20056;-71
2023/02/07 04:18:08;;;;;;;29.95;22.73;;;0.40;99.90;;;;;;2093116;28;20021;-71
2023/02/07 04:19:09;;;;;;;28.25;22.02;;;0.30;99.90;;;;;;2091722;28;20651;-71
2023/02/07 04:20:10;;;;;;;34.47;25.13;;;0.30;99.90;;;;;;2091279;28;20354;-71
2023/02/07 04:21:11;;;;;;;30.52;22.73;;;0.30;99.90;;;;;;2091340;28;20365;-71
2023/02/07 04:22:11;;;;;;;29.08;22.17;;;0.30;99.90;;;;;;2093373;28;20083;-71
2023/02/07 04:23:12;;;;;;;28.75;21.40;;;0.30;99.90;;;;;;2093803;28;20013;-71
2023/02/07 04:24:13;;;;;;;31.80;23.08;;;0.30;99.90;;;;;;2092004;28;20037;-71
2023/02/07 04:25:13;;;;;;;33.83;23.02;;;0.30;99.90;;;;;;2092819;28;20461;-71
2023/02/07 04:26:14;;;;;;;29.02;22.95;;;0.30;99.90;;;;;;2092610;28;20024;-71
2023/02/07 04:27:14;;;;;;;27.02;22.30;;;0.30;99.90;;;;;;2090877;28;20029;-71
2023/02/07 04:28:15;;;;;;;30.48;22.67;;;0.30;99.90;;;;;;2093222;28;20032;-71
2023/02/07 04:29:15;;;;;;;31.35;21.58;;;0.30;99.90;;;;;;2092135;28;20388;-71
2023/02/07 04:30:16;;;;;;;29.60;23.10;;;0.20;99.90;;;;;;2092522;28;20043;-71
2023/02/07 04:31:16;;;;;;;29.40;22.45;;;0.20;99.90;;;;;;2094140;28;20024;-71
2023/02/07 04:32:17;;;;;;;32.08;23.30;;;0.20;99.90;;;;;;2090736;28;20025;-71
2023/02/07 04:33:18;;;;;;;30.77;22.55;;;0.20;99.90;;;;;;2093665;28;20154;-71
2023/02/07 04:34:18;;;;;;;30.00;21.95;;;0.20;99.90;;;;;;2091866;28;20025;-71
2023/02/07 04:35:19;;;;;;;29.27;23.00;;;0.20;99.90;;;;;;2092359;28;20016;-71
2023/02/07 04:36:19;;;;;;;27.90;20.00;;;0.10;99.90;;;;;;2091781;28;20032;-71
2023/02/07 04:37:20;;;;;;;28.45;22.02;;;0.10;99.90;;;;;;2092577;28;20031;-71
2023/02/07 04:38:21;;;;;;;31.73;23.80;;;0.10;99.90;;;;;;2093908;28;20048;-71
2023/02/07 04:39:21;;;;;;;30.55;23.58;;;0.10;99.90;;;;;;2092423;28;20464;-71
2023/02/07 04:40:22;;;;;;;32.45;22.05;;;0.10;99.90;;;;;;2092010;28;20028;-71
2023/02/07 04:41:23;;;;;;;33.78;22.73;;;0.10;99.90;;;;;;2093823;28;20613;-71
2023/02/07 04:42:24;;;;;;;28.17;21.35;;;0.10;99.90;;;;;;2093444;28;20029;-71
2023/02/07 04:43:24;;;;;;;30.95;22.20;;;0.10;99.90;;;;;;2091450;28;20029;-71
2023/02/07 04:44:25;;;;;;;29.05;21.70;;;0.10;99.90;;;;;;2094978;28;20032;-71
2023/02/07 04:45:25;;;;;;;28.42;21.35;;;0.10;99.90;;;;;;2095544;28;20024;-71
2023/02/07 04:46:27;;;;;;;29.15;22.33;;;0.00;99.90;;;;;;2095416;28;20120;-71
2023/02/07 04:47:27;;;;;;;33.58;21.90;;;0.10;99.90;;;;;;2091161;28;20052;-71
2023/02/07 04:48:28;;;;;;;27.35;20.88;;;0.10;99.90;;;;;;2092733;28;20123;-71
2023/02/07 04:49:29;;;;;;;27.50;21.23;;;0.00;99.90;;;;;;2095914;28;20238;-71
2023/02/07 04:50:29;;;;;;;30.90;20.92;;;0.00;99.90;;;;;;2094845;28;20632;-71
2023/02/07 04:51:31;;;;;;;26.20;20.23;;;0.00;99.90;;;;;;2094957;28;20035;-71
2023/02/07 04:52:31;;;;;;;30.23;21.58;;;0.00;99.90;;;;;;2094924;28;20547;-71
2023/02/07 04:53:32;;;;;;;25.38;20.17;;;0.00;99.90;;;;;;2092419;28;20459;-71
2023/02/07 04:54:33;;;;;;;25.45;20.20;;;0.00;99.90;;;;;;2092202;28;20697;-71
2023/02/07 04:55:35;;;;;;;25.00;20.27;;;0.00;99.90;;;;;;2094002;28;20044;-71
2023/02/07 04:56:36;;;;;;;30.35;21.13;;;0.00;99.90;;;;;;2092964;28;20457;-71
2023/02/07 04:57:36;;;;;;;26.85;20.73;;;0.00;99.90;;;;;;2094551;28;20054;-71
2023/02/07 04:58:37;;;;;;;26.88;19.88;;;0.00;99.90;;;;;;2092939;28;20032;-71
2023/02/07 04:59:38;;;;;;;26.88;20.67;;;0.00;99.90;;;;;;2090407;28;20167;-71
2023/02/07 05:00:38;;;;;;;25.60;21.05;;;0.00;99.90;;;;;;2090751;28;20032;-71
2023/02/07 05:01:39;;;;;;;24.15;19.73;;;0.00;99.90;;;;;;2092274;28;20044;-71
2023/02/07 05:02:40;;;;;;;25.73;18.95;;;-0.10;99.90;;;;;;2091404;28;20096;-71
2023/02/07 05:03:40;;;;;;;23.35;18.95;;;-0.10;99.90;;;;;;2092530;28;20028;-71
2023/02/07 05:04:41;;;;;;;26.92;19.70;;;-0.10;99.90;;;;;;2091700;28;20075;-71
2023/02/07 05:05:43;;;;;;;23.80;19.42;;;-0.10;99.90;;;;;;2091956;28;20032;-71
2023/02/07 05:06:44;;;;;;;25.00;18.65;;;-0.10;99.90;;;;;;2092588;28;20040;-72
2023/02/07 05:07:44;;;;;;;25.63;18.88;;;-0.10;99.90;;;;;;2092655;28;20033;-72
2023/02/07 05:08:45;;;;;;;24.92;20.40;;;-0.10;99.90;;;;;;2092348;28;20067;-72
2023/02/07 05:09:45;;;;;;;31.83;19.70;;;-0.10;99.90;;;;;;2093448;28;20039;-72
2023/02/07 05:10:46;;;;;;;26.98;20.98;;;-0.10;99.90;;;;;;2091776;28;20796;-72
2023/02/07 05:11:46;;;;;;;23.85;19.73;;;-0.10;99.90;;;;;;2092597;28;20025;-72
2023/02/07 05:12:47;;;;;;;28.63;21.95;;;-0.10;99.90;;;;;;2093678;28;20037;-71
2023/02/07 05:13:48;;;;;;;26.77;20.67;;;-0.10;99.90;;;;;;2093913;28;20031;-71
2023/02/07 05:14:48;;;;;;;27.80;20.70;;;0.00;99.90;;;;;;2095391;28;20028;-71
2023/02/07 05:15:50;;;;;;;27.15;20.05;;;0.00;99.90;;;;;;2091513;28;20021;-71
2023/02/07 05:16:50;;;;;;;26.85;20.98;;;0.00;99.90;;;;;;2092466;28;20341;-71
2023/02/07 05:17:51;;;;;;;24.35;19.27;;;0.00;99.90;;;;;;2094700;28;20187;-71
2023/02/07 05:18:51;;;;;;;27.23;19.58;;;-0.10;99.90;;;;;;2097031;28;20021;-71
2023/02/07 05:19:52;;;;;;;25.63;20.35;;;0.00;99.90;;;;;;2092448;28;20028;-71
2023/02/07 05:20:53;;;;;;;24.52;20.45;;;0.00;99.90;;;;;;2093558;28;20028;-71
2023/02/07 05:21:53;;;;;;;27.77;20.23;;;-0.10;99.90;;;;;;2091372;28;20103;-71
2023/02/07 05:22:54;;;;;;;28.02;21.48;;;-0.10;99.90;;;;;;2093210;28;20025;-71
2023/02/07 05:23:54;;;;;;;26.80;20.52;;;0.00;99.90;;;;;;2091137;28;20033;-71
2023/02/07 05:24:55;;;;;;;27.40;20.25;;;-0.10;99.90;;;;;;2088586;28;20032;-71
2023/02/07 05:25:55;;;;;;;25.00;20.42;;;0.00;99.90;;;;;;2090930;28;20032;-71
2023/02/07 05:26:56;;;;;;;23.98;20.02;;;0.00;99.90;;;;;;2091978;28;20112;-71
2023/02/07 05:27:56;;;;;;;34.03;22.63;;;0.00;99.90;;;;;;2090751;28;20071;-71
2023/02/07 05:28:57;;;;;;;27.42;20.85;;;0.00;99.90;;;;;;2090136;28;20033;-71
2023/02/07 05:29:58;;;;;;;29.13;21.80;;;0.00;99.90;;;;;;2089057;28;20764;-71
2023/02/07 05:30:58;;;;;;;29.42;21.20;;;0.00;99.90;;;;;;2091875;28;20039;-72